Time;durP1;ratioP1;P1;durP2;ratioP2;P2;SDS_P1;SDS_P2;PMS_P1;PMS_P2;Temp;Humidity;BMP_temperature;BMP_pressure;BME280_temperature;BME280_humidity;BME280_pressure;Samples;Min_cycle;Max_cycle;Signal;HPM_P1;HPM_P2
2021/05/23 00:01:38;;;;;;;2.58;2.37;;;;;;;15.26;70.89;101230.21;1643582;87;20977;-72
2021/05/23 00:04:06;;;;;;;6.28;2.08;;;;;;;15.26;70.79;101224.52;1643428;85;21122;-70
2021/05/23 00:06:33;;;;;;;5.72;2.05;;;;;;;15.27;70.84;101223.58;1643702;87;21504;-70
2021/05/23 00:09:01;;;;;;;4.42;2.20;;;;;;;15.29;70.94;101221.66;1643398;87;21001;-70
2021/05/23 00:11:28;;;;;;;4.90;1.77;;;;;;;15.29;70.93;101218.20;1643424;87;20986;-70
2021/05/23 00:13:55;;;;;;;2.75;1.72;;;;;;;15.29;70.90;101212.98;1643517;87;21592;-71
2021/05/23 00:16:23;;;;;;;4.35;1.77;;;;;;;15.27;70.93;101221.42;1643608;87;21182;-70
2021/05/23 00:18:53;;;;;;;5.20;2.00;;;;;;;15.26;70.88;101220.59;1643566;87;20942;-71
2021/05/23 00:21:23;;;;;;;4.30;2.02;;;;;;;15.26;70.86;101226.29;1643623;87;21045;-73
2021/05/23 00:23:50;;;;;;;6.75;2.00;;;;;;;15.25;70.87;101219.42;1643314;87;21543;-72
2021/05/23 00:26:17;;;;;;;5.15;2.17;;;;;;;15.26;70.88;101222.37;1643567;87;21551;-71
2021/05/23 00:28:43;;;;;;;1.85;1.72;;;;;;;15.28;70.87;101221.80;1643610;87;21759;-72
2021/05/23 00:31:10;;;;;;;4.17;1.92;;;;;;;15.29;70.71;101224.27;1643368;87;20903;-72
2021/05/23 00:33:37;;;;;;;2.05;1.80;;;;;;;15.28;70.68;101210.83;1643496;87;21002;-70
2021/05/23 00:36:05;;;;;;;3.72;1.85;;;;;;;15.29;70.62;101212.98;1643579;87;21018;-71
2021/05/23 00:38:32;;;;;;;3.15;2.27;;;;;;;15.28;70.59;101210.83;1643518;87;21153;-71
2021/05/23 00:40:59;;;;;;;2.87;2.02;;;;;;;15.28;70.63;101211.33;1643430;87;21675;-73
2021/05/23 00:43:26;;;;;;;3.87;1.72;;;;;;;15.29;70.52;101210.36;1643518;87;21575;-71
2021/05/23 00:45:53;;;;;;;3.70;1.95;;;;;;;15.29;70.47;101213.81;1643515;87;20899;-73
2021/05/23 00:48:22;;;;;;;2.75;1.95;;;;;;;15.30;70.46;101209.42;1643377;87;20970;-72
2021/05/23 00:50:50;;;;;;;2.87;1.90;;;;;;;15.30;70.43;101210.73;1643716;87;21018;-71
2021/05/23 00:53:17;;;;;;;3.65;1.70;;;;;;;15.29;70.35;101209.05;1643594;87;21126;-73
2021/05/23 00:55:45;;;;;;;4.25;2.08;;;;;;;15.28;70.29;101208.22;1643485;87;20997;-72
2021/05/23 00:58:13;;;;;;;2.17;1.62;;;;;;;15.26;70.21;101204.06;1643437;87;21504;-71
2021/05/23 01:00:46;;;;;;;4.65;2.00;;;;;;;15.25;70.06;101199.30;1643445;87;21532;-72
2021/05/23 01:03:29;;;;;;;4.40;1.98;;;;;;;15.26;69.93;101195.75;1643484;87;21006;-73
2021/05/23 01:06:05;;;;;;;3.17;1.83;;;;;;;15.28;69.80;101196.95;1639681;87;21644;-72
2021/05/23 01:08:34;;;;;;;2.17;1.77;;;;;;;15.27;69.73;101198.73;1638100;86;21185;-72
2021/05/23 01:11:08;;;;;;;3.92;2.00;;;;;;;15.27;69.67;101197.42;1639261;87;21601;-73
2021/05/23 01:13:46;;;;;;;3.33;1.87;;;;;;;15.26;69.59;101198.36;1639658;87;20986;-73
2021/05/23 01:16:20;;;;;;;4.35;1.80;;;;;;;15.24;69.49;101200.28;1639861;87;20947;-73
2021/05/23 01:19:15;;;;;;;3.87;1.85;;;;;;;15.23;69.55;101207.75;1640359;87;21031;-73
2021/05/23 01:21:44;;;;;;;;;;;;;;;15.21;69.65;101205.74;1642399;87;20975;-74
2021/05/23 01:24:29;;;;;;;2.22;1.80;;;;;;;15.20;69.79;101209.30;1639827;87;20175;-74
2021/05/23 01:26:55;;;;;;;1.72;1.62;;;;;;;15.18;70.07;101209.06;1639659;87;21038;-74
2021/05/23 01:29:24;;;;;;;3.25;1.80;;;;;;;15.18;70.54;101215.59;1640134;87;21601;-73
2021/05/23 01:31:55;;;;;;;4.85;1.90;;;;;;;15.15;70.81;101215.83;1640159;87;21108;-74
2021/05/23 01:34:22;;;;;;;3.05;1.60;;;;;;;15.12;71.05;101223.91;1612507;87;21005;-73
2021/05/23 01:36:54;;;;;;;3.00;1.60;;;;;;;15.07;71.20;101224.25;1638790;87;20931;-74
2021/05/23 01:39:21;;;;;;;2.90;1.62;;;;;;;15.05;71.55;101222.70;1638610;87;20998;-73
2021/05/23 01:41:49;;;;;;;3.47;1.70;;;;;;;15.01;71.76;101224.72;1638700;87;21576;-73
2021/05/23 01:44:16;;;;;;;3.42;1.70;;;;;;;14.99;71.97;101225.31;1639030;87;21531;-74
2021/05/23 01:46:43;;;;;;;4.50;1.70;;;;;;;14.96;71.90;101229.94;1638993;87;20911;-73
2021/05/23 01:49:10;;;;;;;4.40;2.12;;;;;;;14.94;72.14;101232.65;1638854;87;20977;-74
2021/05/23 01:51:38;;;;;;;2.33;1.90;;;;;;;14.95;72.28;101236.10;1639003;87;21664;-73
2021/05/23 01:54:06;;;;;;;2.75;1.75;;;;;;;14.94;72.68;101249.64;1638840;87;21042;-73
2021/05/23 01:56:33;;;;;;;2.62;2.00;;;;;;;14.92;72.34;101246.78;1638938;87;21107;-72
2021/05/23 01:58:59;;;;;;;3.77;2.02;;;;;;;14.92;72.05;101250.70;1638625;87;21018;-73
2021/05/23 02:01:26;;;;;;;3.90;1.72;;;;;;;14.94;71.96;101252.72;1638920;87;21026;-73
2021/05/23 02:03:58;;;;;;;4.08;1.72;;;;;;;14.95;71.94;101253.09;1638739;85;20983;-72
2021/05/23 02:06:25;;;;;;;5.58;2.08;;;;;;;14.94;72.02;101257.48;1644184;87;21655;-72
2021/05/23 02:08:53;;;;;;;1.90;1.80;;;;;;;14.94;71.96;101260.56;1643965;87;21838;-72
2021/05/23 02:11:20;;;;;;;2.00;1.80;;;;;;;14.92;71.88;101255.94;1644061;87;20997;-71
2021/05/23 02:13:52;;;;;;;2.15;1.70;;;;;;;14.91;71.76;101260.32;1644022;87;20945;-72
2021/05/23 02:16:19;;;;;;;;;;;;;;;14.93;71.71;101257.14;1646361;87;21065;-73
2021/05/23 02:18:48;;;;;;;1.95;1.60;;;;;;;14.94;71.65;101263.17;1644167;87;20144;-74
2021/05/23 02:21:15;;;;;;;2.70;1.72;;;;;;;14.91;71.73;101257.70;1644012;87;21092;-72
2021/05/23 02:23:51;;;;;;;4.90;2.00;;;;;;;14.90;71.78;101261.26;1644090;87;21093;-73
2021/05/23 02:26:20;;;;;;;4.60;1.92;;;;;;;14.89;71.84;101258.31;1644297;87;20965;-73
2021/05/23 02:28:47;;;;;;;2.35;1.85;;;;;;;14.88;71.95;101261.86;1643942;87;20994;-73
2021/05/23 02:31:14;;;;;;;3.47;2.00;;;;;;;14.88;72.04;101265.78;1644226;87;20997;-74
2021/05/23 02:33:41;;;;;;;2.90;1.67;;;;;;;14.87;72.16;101268.02;1644334;86;21123;-72
2021/05/23 02:36:08;;;;;;;3.10;1.80;;;;;;;14.89;72.24;101269.23;1644143;87;21017;-73
2021/05/23 02:38:35;;;;;;;2.22;1.75;;;;;;;14.89;72.25;101265.31;1644322;87;21030;-73
2021/05/23 02:41:02;;;;;;;2.67;2.10;;;;;;;14.89;72.29;101269.23;1643979;87;21009;-73
2021/05/23 02:43:30;;;;;;;2.85;1.80;;;;;;;14.89;72.42;101271.37;1644094;87;21606;-72
2021/05/23 02:45:56;;;;;;;2.20;2.00;;;;;;;14.88;72.52;101270.16;1644081;87;22855;-75
2021/05/23 02:48:24;;;;;;;3.52;1.80;;;;;;;14.86;72.73;101274.22;1644019;87;20997;-73
2021/05/23 02:50:53;;;;;;;4.67;2.25;;;;;;;14.87;72.76;101274.55;1644356;87;20914;-73
2021/05/23 02:53:20;;;;;;;2.10;1.90;;;;;;;14.88;72.82;101280.63;1644005;87;21527;-73
2021/05/23 02:55:49;;;;;;;2.67;1.90;;;;;;;14.87;72.83;101279.78;1644219;87;20922;-72
2021/05/23 02:58:16;;;;;;;3.25;1.80;;;;;;;14.88;72.95;101284.07;1644069;86;21105;-73
2021/05/23 03:00:44;;;;;;;3.20;1.80;;;;;;;14.89;73.37;101283.60;1644139;87;20977;-73
2021/05/23 03:03:11;;;;;;;2.30;1.65;;;;;;;14.88;73.72;101284.07;1644236;87;20929;-75
2021/05/23 03:05:38;;;;;;;4.05;2.15;;;;;;;14.89;74.20;101287.05;1641083;86;21062;-74
2021/05/23 03:08:05;;;;;;;2.10;1.70;;;;;;;14.91;74.37;101290.38;1639206;87;21002;-73
2021/05/23 03:10:42;;;;;;;3.67;1.90;;;;;;;14.93;74.35;101298.12;1639237;87;21122;-73
2021/05/23 03:13:09;;;;;;;2.12;1.92;;;;;;;14.92;74.40;101298.58;1638575;87;20995;-73
2021/05/23 03:15:38;;;;;;;4.60;1.62;;;;;;;14.93;74.39;101299.42;1639185;87;21015;-73
2021/05/23 03:18:05;;;;;;;2.35;1.77;;;;;;;14.92;74.83;101299.89;1638704;87;21622;-74
2021/05/23 03:20:36;;;;;;;3.77;1.72;;;;;;;14.93;75.15;101300.27;1638805;87;21054;-73
2021/05/23 03:23:03;;;;;;;2.60;2.10;;;;;;;14.94;75.35;101299.30;1638945;87;21693;-73
2021/05/23 03:25:30;;;;;;;3.15;2.10;;;;;;;14.96;74.71;101302.65;1639068;87;21020;-73
2021/05/23 03:27:58;;;;;;;4.42;2.02;;;;;;;15.01;74.14;101305.73;1638882;87;21730;-73
2021/05/23 03:30:29;;;;;;;5.50;1.90;;;;;;;15.04;73.75;101308.59;1639135;87;21066;-73
2021/05/23 03:32:56;;;;;;;2.45;1.85;;;;;;;15.08;73.50;101310.88;1638642;87;21073;-73
2021/05/23 03:35:24;;;;;;;5.75;2.20;;;;;;;15.11;74.28;101314.57;1639114;87;21129;-73
2021/05/23 03:37:51;;;;;;;2.60;1.87;;;;;;;15.11;74.42;101314.57;1639045;87;21074;-73
2021/05/23 03:40:18;;;;;;;3.50;2.17;;;;;;;15.13;74.97;101319.20;1638889;87;21564;-73
2021/05/23 03:42:47;;;;;;;2.90;1.95;;;;;;;15.17;75.12;101321.95;1638885;87;21006;-73
2021/05/23 03:45:16;;;;;;;4.37;2.22;;;;;;;15.22;75.25;101326.85;1638862;87;20946;-73
2021/05/23 03:47:44;;;;;;;4.00;1.80;;;;;;;15.25;75.44;101330.55;1638604;87;21711;-74
2021/05/23 03:50:13;;;;;;;8.88;1.95;;;;;;;15.30;75.86;101328.41;1638811;87;21042;-73
2021/05/23 03:52:40;;;;;;;6.28;2.20;;;;;;;15.32;75.87;101324.72;1638869;87;21106;-73
2021/05/23 03:55:08;;;;;;;4.30;1.77;;;;;;;15.37;75.86;101330.92;1638906;87;21093;-74
2021/05/23 03:57:35;;;;;;;2.80;1.77;;;;;;;15.44;75.67;101329.52;1639104;87;21615;-73
2021/05/23 04:00:06;;;;;;;4.83;2.40;;;;;;;15.52;75.86;101338.11;1638794;87;21105;-74
2021/05/23 04:02:35;;;;;;;7.05;2.45;;;;;;;15.63;75.50;101332.91;1642822;87;21041;-73
2021/05/23 04:05:04;;;;;;;4.40;2.05;;;;;;;15.73;75.11;101333.37;1642471;86;21010;-73
2021/05/23 04:07:31;;;;;;;4.45;2.67;;;;;;;15.83;74.72;101330.88;1636905;87;21054;-74
2021/05/23 04:09:59;;;;;;;5.00;2.27;;;;;;;15.93;74.37;101329.22;1636711;87;21048;-73
2021/05/23 04:12:33;;;;;;;4.33;2.10;;;;;;;16.03;74.13;101334.57;1636910;87;21102;-73
2021/05/23 04:14:55;;;;;;;4.00;2.30;;;;;;;16.09;73.93;101338.86;1638094;87;20994;-73
2021/05/23 04:17:22;;;;;;;7.05;2.10;;;;;;;16.14;74.00;101342.44;1636868;87;21058;-74
2021/05/23 04:19:49;;;;;;;2.30;2.10;;;;;;;16.18;73.89;101335.51;1616759;87;21042;-73
2021/05/23 04:22:16;;;;;;;4.85;2.35;;;;;;;16.25;73.61;101338.01;1636898;87;21082;-74
2021/05/23 04:24:43;;;;;;;3.15;2.27;;;;;;;16.32;73.11;101331.81;1637034;87;21802;-73
2021/05/23 04:27:10;;;;;;;4.22;1.98;;;;;;;16.38;72.85;101331.32;1636933;87;20955;-75
2021/05/23 04:29:37;;;;;;;4.40;2.00;;;;;;;16.43;72.47;101340.47;1636863;87;21084;-72
2021/05/23 04:32:07;;;;;;;5.67;2.15;;;;;;;16.50;71.96;101339.98;1636692;87;20975;-71
2021/05/23 04:34:35;;;;;;;2.37;1.95;;;;;;;16.54;71.54;101341.41;1637016;87;20970;-72
2021/05/23 04:37:03;;;;;;;3.45;2.02;;;;;;;16.58;71.58;101341.55;1636831;87;21690;-71
2021/05/23 04:39:30;;;;;;;3.60;2.00;;;;;;;16.63;71.55;101344.16;1636841;87;20943;-72
2021/05/23 04:41:57;;;;;;;3.37;1.90;;;;;;;16.66;70.81;101347.00;1636627;87;21050;-71
2021/05/23 04:44:24;;;;;;;2.33;1.98;;;;;;;16.69;70.72;101357.23;1636898;87;20998;-70
2021/05/23 04:46:51;;;;;;;3.45;2.00;;;;;;;16.70;70.49;101360.22;1636801;87;21516;-71
2021/05/23 04:49:18;;;;;;;3.87;2.05;;;;;;;16.70;70.32;101364.98;1636989;87;21091;-73
2021/05/23 04:51:45;;;;;;;2.62;2.08;;;;;;;16.73;70.23;101379.16;1636908;87;21014;-73
2021/05/23 04:54:13;;;;;;;3.42;2.35;;;;;;;16.76;70.08;101370.20;1636760;87;21520;-74
2021/05/23 04:56:40;;;;;;;6.58;1.77;;;;;;;16.81;69.86;101381.17;1636726;87;21572;-73
2021/05/23 04:59:07;;;;;;;4.33;2.77;;;;;;;16.86;69.42;101388.17;1636810;87;21034;-73
2021/05/23 05:01:34;;;;;;;3.77;2.05;;;;;;;16.88;68.44;101391.48;1636751;87;21112;-73
2021/05/23 05:04:02;;;;;;;2.77;2.20;;;;;;;16.93;68.34;101393.28;1636810;87;21070;-73
2021/05/23 05:06:29;;;;;;;3.90;2.10;;;;;;;17.00;68.18;101391.00;1636870;87;21137;-73
2021/05/23 05:08:56;;;;;;;3.45;2.20;;;;;;;17.03;68.10;101395.52;1636785;87;21612;-73
2021/05/23 05:11:23;;;;;;;4.37;2.37;;;;;;;17.10;68.09;101399.78;1636884;87;21050;-73
2021/05/23 05:13:51;;;;;;;4.75;2.40;;;;;;;17.15;68.19;101415.97;1636777;87;21127;-76
2021/05/23 05:16:18;;;;;;;4.78;2.37;;;;;;;17.21;67.99;101418.09;1636764;87;21663;-71
2021/05/23 05:18:45;;;;;;;4.00;2.12;;;;;;;17.24;67.52;101406.03;1636985;87;21652;-72
2021/05/23 05:21:12;;;;;;;4.33;3.08;;;;;;;17.27;66.79;101402.67;1636735;87;21004;-72
2021/05/23 05:23:39;;;;;;;2.70;2.37;;;;;;;17.25;67.21;101405.92;1637763;87;20979;-73
2021/05/23 05:26:06;;;;;;;4.15;2.17;;;;;;;17.24;67.64;101410.80;1638821;87;21087;-74
2021/05/23 05:28:35;;;;;;;2.10;1.90;;;;;;;17.26;67.56;101408.88;1638785;87;20907;-71
2021/05/23 05:31:02;;;;;;;2.30;2.10;;;;;;;17.29;67.44;101416.99;1638215;87;21067;-73
2021/05/23 05:33:29;;;;;;;3.20;2.50;;;;;;;17.32;68.08;101419.36;1639245;87;20983;-73
2021/05/23 05:35:56;;;;;;;9.95;2.55;;;;;;;17.35;68.03;101412.08;1641472;87;20892;-73
2021/05/23 05:38:23;;;;;;;2.12;1.92;;;;;;;17.43;68.15;101417.51;1640620;87;21074;-72
2021/05/23 05:40:50;;;;;;;2.87;2.17;;;;;;;17.53;67.99;101416.27;1638115;87;21039;-72
2021/05/23 05:43:19;;;;;;;4.58;2.12;;;;;;;17.62;67.52;101422.09;1639503;87;21055;-74
2021/05/23 05:45:46;;;;;;;4.10;1.95;;;;;;;17.74;67.77;101425.00;1636914;87;21037;-74
2021/05/23 05:48:14;;;;;;;4.12;2.10;;;;;;;17.88;67.61;101427.31;1636498;87;21572;-75
2021/05/23 05:50:42;;;;;;;2.92;2.00;;;;;;;18.03;66.78;101433.05;1636692;87;21054;-74
2021/05/23 05:53:09;;;;;;;4.67;2.08;;;;;;;18.19;66.46;101429.46;1637446;87;20912;-72
2021/05/23 05:55:37;;;;;;;5.20;2.20;;;;;;;18.34;66.40;101437.84;1637026;87;20975;-74
2021/05/23 05:58:04;;;;;;;3.20;2.12;;;;;;;18.48;66.12;101442.23;1637096;87;20934;-72
2021/05/23 06:00:31;;;;;;;2.45;2.00;;;;;;;18.62;66.05;101434.51;1637221;87;20947;-76
2021/05/23 06:02:58;;;;;;;2.52;2.10;;;;;;;18.73;65.40;101425.17;1639104;87;21380;-74
2021/05/23 06:05:25;;;;;;;2.45;2.08;;;;;;;18.81;65.22;101419.25;1638144;86;21030;-75
2021/05/23 06:07:52;;;;;;;4.22;2.52;;;;;;;18.88;65.10;101417.27;1640943;87;21027;-73
2021/05/23 06:10:21;;;;;;;4.40;2.33;;;;;;;18.92;64.54;101413.37;1639585;87;21140;-71
2021/05/23 06:12:48;;;;;;;4.12;2.10;;;;;;;18.88;64.69;101419.06;1640289;87;21106;-74
2021/05/23 06:15:15;;;;;;;3.47;2.45;;;;;;;18.83;65.08;101427.83;1641074;87;21095;-71
2021/05/23 06:17:44;;;;;;;4.92;3.37;;;;;;;18.74;65.59;101420.75;1640369;87;21006;-74
2021/05/23 06:20:12;;;;;;;3.00;2.60;;;;;;;18.63;65.77;101417.78;1639106;87;21093;-74
2021/05/23 06:22:39;;;;;;;4.03;2.90;;;;;;;18.52;66.06;101425.75;1639241;87;21062;-75
2021/05/23 06:25:07;;;;;;;3.85;2.55;;;;;;;18.47;66.86;101430.05;1639153;87;21834;-74
2021/05/23 06:27:35;;;;;;;3.17;2.45;;;;;;;18.44;67.76;101430.83;1639233;87;21707;-70
2021/05/23 06:30:05;;;;;;;4.70;2.50;;;;;;;18.45;67.45;101439.05;1638916;87;20946;-74
2021/05/23 06:32:32;;;;;;;3.40;2.33;;;;;;;18.48;68.02;101434.35;1638296;87;20931;-76
2021/05/23 06:35:01;;;;;;;3.80;2.10;;;;;;;18.50;68.75;101432.95;1638880;87;21066;-74
2021/05/23 06:37:30;;;;;;;3.22;2.10;;;;;;;18.53;69.40;101430.53;1638680;87;21122;-75
2021/05/23 06:39:59;;;;;;;3.40;2.33;;;;;;;18.59;68.74;101440.03;1639005;87;21213;-73
2021/05/23 06:42:27;;;;;;;2.27;2.05;;;;;;;18.63;68.27;101437.50;1638876;87;21013;-72
2021/05/23 06:44:54;;;;;;;4.67;2.15;;;;;;;18.67;67.12;101434.92;1639062;87;20972;-74
2021/05/23 06:47:22;;;;;;;4.58;2.20;;;;;;;18.72;66.28;101437.16;1638921;87;21718;-73
2021/05/23 06:49:49;;;;;;;4.33;1.98;;;;;;;18.81;66.06;101442.92;1639059;87;21596;-74
2021/05/23 06:52:16;;;;;;;4.05;2.20;;;;;;;18.89;65.53;101445.22;1638939;87;21174;-76
2021/05/23 06:54:45;;;;;;;2.87;2.02;;;;;;;18.95;64.65;101449.12;1639092;87;20911;-73
2021/05/23 06:57:13;;;;;;;4.10;2.35;;;;;;;19.02;64.38;101441.01;1638917;87;21366;-76
2021/05/23 06:59:40;;;;;;;2.77;1.80;;;;;;;19.14;63.41;101438.62;1638978;87;20943;-71
2021/05/23 07:02:07;;;;;;;2.85;2.10;;;;;;;19.25;63.73;101435.84;1638982;87;21647;-75
2021/05/23 07:04:34;;;;;;;2.67;1.60;;;;;;;19.36;63.80;101429.14;1639066;87;21758;-74
2021/05/23 07:07:01;;;;;;;3.08;1.98;;;;;;;19.49;62.71;101417.88;1638780;86;21044;-73
2021/05/23 07:09:28;;;;;;;2.40;1.47;;;;;;;19.64;61.69;101414.80;1639001;87;20986;-75
2021/05/23 07:11:55;;;;;;;2.08;1.77;;;;;;;19.75;61.66;101414.65;1638871;87;21018;-75
2021/05/23 07:14:22;;;;;;;2.05;1.85;;;;;;;19.87;61.09;101414.34;1638705;87;21002;-72
2021/05/23 07:16:52;;;;;;;3.00;1.87;;;;;;;20.00;59.28;101406.12;1638774;87;21014;-72
2021/05/23 07:19:19;;;;;;;2.08;1.67;;;;;;;20.14;60.25;101412.70;1638826;87;21026;-70
2021/05/23 07:21:46;;;;;;;3.27;1.80;;;;;;;20.28;59.11;101410.47;1638914;87;21020;-71
2021/05/23 07:24:13;;;;;;;2.30;2.10;;;;;;;20.43;58.04;101421.35;1638689;87;21010;-73
2021/05/23 07:26:41;;;;;;;4.75;2.00;;;;;;;20.49;55.38;101416.33;1638911;87;21058;-72
2021/05/23 07:29:09;;;;;;;3.27;1.77;;;;;;;20.55;55.23;101421.49;1638947;87;21114;-72
2021/05/23 07:31:37;;;;;;;2.67;2.47;;;;;;;20.59;56.04;101415.79;1638829;87;21010;-72
2021/05/23 07:55:35;;;;;;;2.37;2.08;;;;;;;21.10;56.81;101420.48;1638976;87;21058;-71
2021/05/23 07:58:02;;;;;;;2.77;2.08;;;;;;;21.19;53.74;101413.45;1638756;87;21666;-72
2021/05/23 08:00:30;;;;;;;4.28;2.10;;;;;;;21.27;53.96;101413.54;1639043;87;21120;-69
2021/05/23 08:02:57;;;;;;;2.10;1.95;;;;;;;21.34;53.61;101417.23;1638735;87;21032;-72
2021/05/23 08:05:24;;;;;;;2.47;2.00;;;;;;;21.40;53.47;101417.11;1638863;87;21794;-71
2021/05/23 08:07:52;;;;;;;4.12;1.87;;;;;;;21.45;53.38;101413.02;1637103;87;20923;-73
2021/05/23 08:10:19;;;;;;;2.37;1.92;;;;;;;21.56;53.48;101408.83;1636826;87;21099;-76
2021/05/23 08:12:47;;;;;;;5.00;1.95;;;;;;;21.68;52.93;101417.81;1636852;87;21118;-72
2021/05/23 09:25:05;;;;;;;1.65;1.40;;;;;;;24.06;44.67;101368.83;1755914;80;21000;-74
2021/05/23 09:27:33;;;;;;;4.15;1.60;;;;;;;24.27;44.46;101368.79;1756996;81;20861;-74
2021/05/23 09:30:07;;;;;;;4.65;1.95;;;;;;;24.37;44.22;101360.95;1758378;81;21012;-73
2021/05/23 09:32:44;;;;;;;3.08;1.87;;;;;;;24.44;43.70;101355.25;1757869;81;21087;-75
2021/05/23 10:17:42;;;;;;;4.85;1.40;;;;;;;30.76;27.81;101349.59;1756236;81;20896;-71
2021/05/23 10:20:11;;;;;;;2.60;1.30;;;;;;;30.32;29.11;101349.62;1756183;81;20964;-70
2021/05/23 10:22:39;;;;;;;1.32;1.00;;;;;;;30.16;29.16;101343.41;1756176;81;21632;-74
2021/05/23 10:25:11;;;;;;;2.20;1.10;;;;;;;29.88;28.88;101349.09;1756778;80;20944;-72
2021/05/23 10:27:43;;;;;;;1.60;1.30;;;;;;;29.77;29.53;101350.52;1757647;81;21820;-71
2021/05/23 10:30:11;;;;;;;3.92;1.35;;;;;;;29.63;29.18;101355.61;1757459;81;20983;-73
2021/05/23 10:32:39;;;;;;;1.50;1.20;;;;;;;29.12;29.90;101356.77;1757545;81;20956;-77
2021/05/23 10:35:22;;;;;;;1.45;1.00;;;;;;;28.88;30.80;101357.35;1757696;81;21075;-72
2021/05/23 10:37:51;;;;;;;1.67;0.93;;;;;;;28.51;29.10;101361.88;1756915;81;20926;-72
2021/05/23 10:40:30;;;;;;;2.17;1.15;;;;;;;28.01;30.10;101357.77;1757677;81;21077;-70
2021/05/23 10:42:59;;;;;;;1.72;1.10;;;;;;;27.66;31.20;101363.63;1757893;81;20995;-72
2021/05/23 10:45:29;;;;;;;3.70;1.30;;;;;;;27.29;31.41;101354.92;1757974;81;21019;-69
2021/05/23 10:47:57;;;;;;;2.65;1.20;;;;;;;27.05;31.11;101355.34;1757806;81;21573;-69
2021/05/23 10:50:33;;;;;;;1.57;1.10;;;;;;;26.87;30.78;101353.62;1757561;81;20900;-71
2021/05/23 10:53:01;;;;;;;1.30;1.17;;;;;;;26.72;31.52;101348.84;1757591;81;21052;-71
2021/05/23 10:55:28;;;;;;;1.55;1.20;;;;;;;26.72;32.15;101344.84;1757910;81;21012;-70
2021/05/23 10:57:56;;;;;;;2.00;1.00;;;;;;;26.83;32.71;101355.05;1757722;81;21546;-72
2021/05/23 11:00:34;;;;;;;3.40;1.30;;;;;;;27.13;32.85;101347.70;1757877;81;20918;-69
2021/05/23 11:03:14;;;;;;;1.22;1.10;;;;;;;27.31;30.41;101347.55;1757890;81;20912;-73
2021/05/23 11:05:43;;;;;;;2.65;1.02;;;;;;;27.37;31.76;101354.47;1757793;81;20984;-71
2021/05/23 11:08:13;;;;;;;2.20;1.30;;;;;;;27.40;30.08;101352.24;1730402;81;21628;-74
2021/05/23 11:10:44;;;;;;;;;;;;;;;27.60;29.84;101349.75;1760554;81;21018;-73
2021/05/23 11:13:15;;;;;;;1.10;0.88;;;;;;;27.80;30.66;101349.33;1757881;81;20159;-72
2021/05/23 11:15:48;;;;;;;3.80;0.98;;;;;;;27.94;29.57;101347.06;1757993;81;20951;-73
2021/05/23 11:18:19;;;;;;;3.17;1.20;;;;;;;28.28;29.77;101344.86;1758026;81;21077;-70
2021/05/23 11:20:57;;;;;;;1.72;1.30;;;;;;;28.60;28.78;101353.48;1757806;81;21000;-72
2021/05/23 11:23:24;;;;;;;5.08;1.35;;;;;;;28.60;28.99;101346.80;1757811;81;20948;-71
2021/05/23 11:26:02;;;;;;;4.65;1.45;;;;;;;28.36;29.14;101351.38;1758641;81;21016;-73
2021/05/23 11:28:29;;;;;;;1.60;1.15;;;;;;;28.18;30.30;101355.09;1759116;81;20968;-72
2021/05/23 11:30:56;;;;;;;3.12;1.20;;;;;;;28.04;29.09;101348.86;1759293;81;21087;-72
2021/05/23 11:33:24;;;;;;;1.40;1.12;;;;;;;27.94;30.48;101348.39;1759103;81;20995;-74
2021/05/23 11:35:53;;;;;;;1.42;1.20;;;;;;;27.94;30.40;101354.23;1759298;81;20896;-73
2021/05/23 11:38:35;;;;;;;1.62;1.35;;;;;;;27.92;30.83;101350.95;1759064;81;20928;-72
2021/05/23 11:41:03;;;;;;;3.87;1.00;;;;;;;27.97;30.63;101357.84;1759179;81;21032;-73
2021/05/23 11:43:32;;;;;;;1.70;1.15;;;;;;;28.01;29.51;101359.93;1759026;81;21102;-73
2021/05/23 11:46:02;;;;;;;1.15;1.00;;;;;;;28.04;29.45;101358.20;1759260;81;20976;-69
2021/05/23 11:48:40;;;;;;;0.90;0.90;;;;;;;28.09;29.15;101359.78;1759184;81;20939;-69
2021/05/23 11:51:11;;;;;;;4.30;1.00;;;;;;;28.11;27.78;101356.93;1759168;81;20976;-80
2021/05/23 11:53:45;;;;;;;2.55;1.20;;;;;;;28.05;28.87;101343.84;1759236;81;21027;-71
2021/05/23 11:56:18;;;;;;;2.62;1.10;;;;;;;28.06;28.86;101356.17;1758545;81;21504;-72
2021/05/23 11:58:48;;;;;;;2.90;1.30;;;;;;;28.45;29.29;101355.50;1759406;81;20975;-76
2021/05/23 12:01:21;;;;;;;1.30;1.20;;;;;;;29.03;29.03;101355.84;1759498;81;21047;-76
2021/05/23 12:04:02;;;;;;;2.37;1.02;;;;;;;29.21;27.30;101353.36;1758627;80;21036;-75
2021/05/23 12:06:30;;;;;;;2.22;1.37;;;;;;;29.19;27.84;101355.44;1759304;81;21060;-76
2021/05/23 12:09:23;;;;;;;1.87;0.98;;;;;;;29.08;27.87;101349.35;1759119;81;21076;-70
2021/05/23 12:12:00;;;;;;;1.62;1.22;;;;;;;28.97;28.46;101351.31;1701780;84;21092;-77
2021/05/23 12:14:32;;;;;;;1.90;1.07;;;;;;;28.86;29.14;101350.06;1701926;84;21618;-75
2021/05/23 12:17:09;;;;;;;1.90;1.22;;;;;;;28.85;29.40;101345.23;1701643;84;21383;-77
2021/05/23 12:19:57;;;;;;;1.65;1.55;;;;;;;28.75;30.42;101340.80;1701886;84;21546;-76
2021/05/23 12:22:35;;;;;;;2.52;2.02;;;;;;;28.62;30.89;101345.28;1701691;84;21095;-72
2021/05/23 12:25:10;;;;;;;1.77;1.67;;;;;;;28.55;30.62;101331.91;1702155;84;20993;-72
2021/05/23 12:27:51;;;;;;;3.25;1.42;;;;;;;28.41;31.95;101328.89;1701794;84;20906;-71
2021/05/23 12:30:26;;;;;;;2.47;1.60;;;;;;;28.46;33.01;101331.80;1701564;84;20909;-73
2021/05/23 12:32:57;;;;;;;5.00;4.50;;;;;;;28.48;31.87;101331.58;1701654;84;21032;-69
2021/05/23 12:35:30;;;;;;;3.55;2.62;;;;;;;28.52;31.95;101336.83;1702021;84;21095;-76
2021/05/23 12:38:04;;;;;;;3.50;2.50;;;;;;;28.40;31.86;101331.77;1701857;84;21031;-74
2021/05/23 12:40:38;;;;;;;5.47;1.52;;;;;;;28.42;32.44;101333.22;1701978;84;21056;-74
2021/05/23 12:43:13;;;;;;;3.40;3.10;;;;;;;28.40;31.77;101325.90;1701775;84;20973;-70
2021/05/23 12:45:42;;;;;;;3.30;1.98;;;;;;;28.37;31.79;101319.62;1702028;84;20949;-69
2021/05/23 12:48:11;;;;;;;6.17;2.02;;;;;;;28.48;31.44;101311.55;1701954;84;21104;-75
2021/05/23 12:50:42;;;;;;;3.65;2.70;;;;;;;28.52;29.28;101306.95;1701875;84;20929;-73
2021/05/23 12:53:09;;;;;;;5.72;1.65;;;;;;;28.39;30.85;101310.92;1702239;84;21518;-70
2021/05/23 12:55:39;;;;;;;1.77;1.57;;;;;;;28.32;30.33;101308.23;1701572;84;21582;-70
2021/05/23 12:58:07;;;;;;;1.75;1.60;;;;;;;28.08;31.32;101309.30;1701931;84;20953;-67
2021/05/23 13:00:41;;;;;;;3.72;1.70;;;;;;;27.93;31.86;101308.05;1701849;84;21086;-70
2021/05/23 13:03:13;;;;;;;3.80;1.95;;;;;;;27.92;32.11;101294.39;1689312;85;20925;-72
2021/05/23 13:05:54;;;;;;;3.25;2.70;;;;;;;27.94;32.66;101294.21;1689747;85;20950;-72
2021/05/23 13:08:21;;;;;;;2.95;2.05;;;;;;;28.12;33.16;101291.84;1687446;85;20957;-71
2021/05/23 13:10:48;;;;;;;3.92;1.52;;;;;;;28.41;32.81;101288.01;1705874;83;21677;-67
2021/05/23 13:13:17;;;;;;;2.27;1.37;;;;;;;28.61;31.64;101291.55;1724482;83;20985;-68
2021/05/23 13:15:44;;;;;;;4.72;1.50;;;;;;;28.77;31.33;101292.52;1725964;83;21005;-68
2021/05/23 13:18:11;;;;;;;1.70;1.50;;;;;;;29.00;31.15;101290.78;1726029;83;21036;-71
2021/05/23 13:20:40;;;;;;;1.20;1.10;;;;;;;29.07;31.19;101282.25;1725522;83;21100;-74
2021/05/23 13:23:08;;;;;;;2.87;1.22;;;;;;;29.13;30.63;101285.42;1725215;83;20973;-70
2021/05/23 13:25:36;;;;;;;1.52;1.20;;;;;;;29.05;30.64;101297.14;1725895;83;21518;-74
2021/05/23 13:28:04;;;;;;;1.47;1.37;;;;;;;28.96;30.54;101290.36;1725350;83;21566;-71
2021/05/23 13:30:32;;;;;;;2.30;2.10;;;;;;;28.78;31.16;101288.30;1725015;83;21025;-70
2021/05/23 13:32:59;;;;;;;3.42;2.33;;;;;;;28.98;31.01;101286.13;1724985;83;20969;-70
2021/05/23 13:35:26;;;;;;;1.82;1.42;;;;;;;29.14;30.63;101282.53;1724897;83;21021;-70
2021/05/23 13:37:55;;;;;;;2.85;1.20;;;;;;;29.14;30.24;101286.54;1725706;83;21112;-76
2021/05/23 13:40:23;;;;;;;2.33;1.30;;;;;;;28.98;27.85;101287.47;1724988;83;21594;-71
2021/05/23 13:42:51;;;;;;;1.85;1.22;;;;;;;28.72;28.55;101282.94;1725596;83;20961;-78
2021/05/23 13:45:18;;;;;;;3.87;1.45;;;;;;;28.54;28.52;101286.70;1725810;83;20949;-80
2021/05/23 13:47:46;;;;;;;5.92;3.85;;;;;;;28.35;28.79;101288.31;1725147;83;21021;-79
2021/05/23 13:50:15;;;;;;;5.97;1.52;;;;;;;28.29;29.14;101291.28;1725123;83;21090;-71